Pagina principală
METAR-TAF:

METAR-TAF

Aeroporturi :

Lecce, Italia

Latitudine: 40-14N, longitudine: 018-09E, elevație: 48 m

Observații meteo curente

Raportul a fost făcut în urmă cu 48 de minute, la 08:55 UTC
Vânt 12 kt de la Nord
Temperatură 36°C
Umiditate 39%
Presiune 1012 hPa
Vizibilitate de 10 km sau mai mult
nu există nori sub 1.500 m și nici cumulonimbus

METAR: LIBN 170855Z 01012KT CAVOK 36/20 Q1012 RMK SKC VIS MIN 9999 WIND THR14 02013KT WIND THR32 01012KT BLU

Ora: 11:43 (09:43 UTC)

Prognoză

Raportul a fost făcut în urmă cu 1 oră și 43 de minute, la 08:00 UTC
Prognoză valabilă de la 17 ora 09 UTC la 17 ora 18 UTC
Vânt 12 kt de la Nord
Vizibilitate de 10 km sau mai mult
nu există nori sub 1.500 m și nici cumulonimbus

TAF: LIBN 170800Z 1709/1718 36012KT CAVOK

Observații și prognoze meteo pentru peste 4.000 de aeroporturi (rapoarte METAR și TAF).

Stațiile disponibile sunt reprezentate pe hartă prin puncte galbene și roșii.

Țineți indicatorul mouse-ului pe punctul dorit pentru a vedea denumirea stației.

Apoi, faceți clic pentru a vedea observațiile și prognozele meteorologice.

Pentru a schimba harta: Pentru mărire, faceți clic pe butoanele verzi cu cruce neagră; pentru micșorare, pe butonul verde cu o liniuță; pentru hărți învecinate, pe săgețile verzi.


METAR-TAF: